KFKL/FKL METAR and TAF weather

Enter ICAO airport designator
Station Type Date Time Source
KFKL METAR 2022/01/25 05:56 UTC NOAA

KFKL 250556Z AUTO 29010G14KT 8SM -SN OVC008 M04/M05 A2973 RMK AO2 SNB0458 SLP089 P0000 60003 T10441050 50014 FZRANO


Station Type Date Time Source
KFKL Decoded METAR 2022/01/25 05:56 UTC NOAA

Franklin, Venango Regional Airport, PA, United States (KFKL) 41-23N 079-52W
Jan 25, 2022 - 12:56 AM EST / 2022.01.25 0556 UTC
Wind: from the WNW (290 degrees) at 12 MPH (10 KT) gusting to 16 MPH (14 KT):0
Visibility: 8 mile(s):0
Sky conditions: overcast
Weather: light snow
Precipitation last hour: A trace
Temperature: 24.1 F (-4.4 C)
Windchill: 12 F (-11 C):1
Dew Point: 23.0 F (-5.0 C)
Relative Humidity: 95%
Pressure (altimeter): 29.73 in. Hg (1006 hPa)
Pressure tendency: 0.04 inches (1.4 hPa) higher than three hours ago
ob: KFKL 250556Z AUTO 29010G14KT 8SM -SN OVC008 M04/M05 A2973 RMK AO2 SNB0458 SLP089 P0000 60003 T10441050 50014 FZRANO
cycle: 6

Station Type Date Time Source
KFKL TAF 2022/01/25 06:22 UTC NOAA

TAF KFKL 250520Z 2506/2606 27005KT 5SM BR OVC007
FM250800 28005KT P6SM OVC015
FM251400 29005KT P6SM BKN020
FM252300 29005KT P6SM BKN035
FM260200 28005KT P6SM BKN025

Example: see airport list